Abbotsford, Canada
Current Conditions -  °F | °C
As of 8:00 PM on Friday 24 Oct 2014 (Local Time) from CYXX Reporting Station
Overcast Overcast  
Wind Chill: 52°   Ceiling: 10000
Heat Index: 52°   Visibility: 15mi
Dew Point: 45°   Wind: 7mph
Humidity: 76%   Direction: 30°NNE
Pressure: 29.89"   Gusts: NA
Location:  49.05°N, 122.33°W
Report Text: CYXX 250300Z 03006KT 15SM BKN100 OVC150 11/07 A2989 RMK AC6AS2 SLP124
Loading
Personal Weather Stations






























Interactive Weather Map
Tropical Storm Tracking
New forecast layout! Learn more

10-Day Weather Forecast

Advertisements
Track Severe Weather on mobile